sensor_id;sensor_type;location;lat;lon;timestamp;pressure;altitude;pressure_sealevel;temperature;humidity
79534;BME280;68982;52.160;6.736;2024-03-08T00:02:22;101666.09;;;1.76;100.00
79534;BME280;68982;52.160;6.736;2024-03-08T00:04:48;101671.94;;;1.68;100.00
79534;BME280;68982;52.160;6.736;2024-03-08T00:07:13;101660.06;;;1.61;100.00
79534;BME280;68982;52.160;6.736;2024-03-08T00:09:39;101661.88;;;1.60;100.00
79534;BME280;68982;52.160;6.736;2024-03-08T00:12:04;101661.34;;;1.55;100.00
79534;BME280;68982;52.160;6.736;2024-03-08T00:14:30;101656.34;;;1.51;100.00
79534;BME280;68982;52.160;6.736;2024-03-08T00:16:55;101655.75;;;1.47;100.00
79534;BME280;68982;52.160;6.736;2024-03-08T00:19:20;101655.19;;;1.42;100.00
79534;BME280;68982;52.160;6.736;2024-03-08T00:21:45;101644.91;;;1.37;100.00
79534;BME280;68982;52.160;6.736;2024-03-08T00:24:11;101647.44;;;1.39;100.00
79534;BME280;68982;52.160;6.736;2024-03-08T00:26:37;101642.56;;;1.33;100.00
79534;BME280;68982;52.160;6.736;2024-03-08T00:29:02;101640.41;;;1.38;100.00
79534;BME280;68982;52.160;6.736;2024-03-08T00:31:28;101647.56;;;1.37;100.00
79534;BME280;68982;52.160;6.736;2024-03-08T00:33:56;101635.75;;;1.29;100.00
79534;BME280;68982;52.160;6.736;2024-03-08T00:36:22;101637.47;;;1.30;100.00
79534;BME280;68982;52.160;6.736;2024-03-08T00:38:47;101636.22;;;1.22;100.00
79534;BME280;68982;52.160;6.736;2024-03-08T00:41:13;101634.50;;;1.21;100.00
79534;BME280;68982;52.160;6.736;2024-03-08T00:43:38;101632.81;;;1.20;100.00
79534;BME280;68982;52.160;6.736;2024-03-08T00:46:03;101636.41;;;1.19;100.00
79534;BME280;68982;52.160;6.736;2024-03-08T00:48:29;101632.91;;;1.19;100.00
79534;BME280;68982;52.160;6.736;2024-03-08T00:50:54;101634.72;;;1.18;100.00
79534;BME280;68982;52.160;6.736;2024-03-08T00:53:19;101618.38;;;1.12;100.00
79534;BME280;68982;52.160;6.736;2024-03-08T00:55:44;101629.75;;;1.14;100.00
79534;BME280;68982;52.160;6.736;2024-03-08T00:58:12;101627.09;;;1.14;100.00
79534;BME280;68982;52.160;6.736;2024-03-08T01:00:37;101620.91;;;1.13;100.00
79534;BME280;68982;52.160;6.736;2024-03-08T01:03:04;101624.53;;;1.12;100.00
79534;BME280;68982;52.160;6.736;2024-03-08T01:05:30;101616.13;;;1.18;100.00
79534;BME280;68982;52.160;6.736;2024-03-08T01:07:55;101602.63;;;1.09;100.00
79534;BME280;68982;52.160;6.736;2024-03-08T01:10:20;101612.66;;;1.18;100.00
79534;BME280;68982;52.160;6.736;2024-03-08T01:12:46;101604.03;;;1.14;100.00
79534;BME280;68982;52.160;6.736;2024-03-08T01:15:11;101605.63;;;1.17;100.00
79534;BME280;68982;52.160;6.736;2024-03-08T01:17:37;101596.16;;;1.13;100.00
79534;BME280;68982;52.160;6.736;2024-03-08T01:20:03;101592.16;;;1.07;100.00
79534;BME280;68982;52.160;6.736;2024-03-08T01:22:28;101583.94;;;1.10;100.00
79534;BME280;68982;52.160;6.736;2024-03-08T01:24:55;101585.97;;;1.07;100.00
79534;BME280;68982;52.160;6.736;2024-03-08T01:27:21;101590.22;;;1.09;100.00
79534;BME280;68982;52.160;6.736;2024-03-08T01:29:46;101582.47;;;1.06;100.00
79534;BME280;68982;52.160;6.736;2024-03-08T01:32:11;101573.97;;;1.01;100.00
79534;BME280;68982;52.160;6.736;2024-03-08T01:34:37;101562.72;;;0.97;100.00
79534;BME280;68982;52.160;6.736;2024-03-08T01:37:02;101570.91;;;1.07;100.00
79534;BME280;68982;52.160;6.736;2024-03-08T01:39:28;101567.38;;;1.07;100.00
79534;BME280;68982;52.160;6.736;2024-03-08T01:41:53;101557.47;;;1.09;100.00
79534;BME280;68982;52.160;6.736;2024-03-08T01:44:19;101562.94;;;1.07;100.00
79534;BME280;68982;52.160;6.736;2024-03-08T01:46:45;101555.47;;;0.99;100.00
79534;BME280;68982;52.160;6.736;2024-03-08T01:49:12;101546.78;;;0.97;100.00
79534;BME280;68982;52.160;6.736;2024-03-08T01:51:40;101554.75;;;0.97;100.00
79534;BME280;68982;52.160;6.736;2024-03-08T01:54:06;101545.94;;;0.97;100.00
79534;BME280;68982;52.160;6.736;2024-03-08T01:56:32;101547.31;;;1.02;100.00
79534;BME280;68982;52.160;6.736;2024-03-08T01:58:59;101547.19;;;1.04;100.00
79534;BME280;68982;52.160;6.736;2024-03-08T02:01:25;101540.94;;;0.92;100.00
79534;BME280;68982;52.160;6.736;2024-03-08T02:03:50;101543.28;;;0.97;100.00
79534;BME280;68982;52.160;6.736;2024-03-08T02:06:16;101548.59;;;0.97;100.00
79534;BME280;68982;52.160;6.736;2024-03-08T02:08:43;101537.97;;;0.97;100.00
79534;BME280;68982;52.160;6.736;2024-03-08T02:11:10;101533.81;;;0.93;100.00
79534;BME280;68982;52.160;6.736;2024-03-08T02:13:35;101532.66;;;0.97;100.00
79534;BME280;68982;52.160;6.736;2024-03-08T02:16:01;101527.03;;;0.89;100.00
79534;BME280;68982;52.160;6.736;2024-03-08T02:18:28;101535.22;;;0.86;100.00
79534;BME280;68982;52.160;6.736;2024-03-08T02:21:00;101525.56;;;0.85;100.00
79534;BME280;68982;52.160;6.736;2024-03-08T02:23:26;101528.44;;;0.81;100.00
79534;BME280;68982;52.160;6.736;2024-03-08T02:25:52;101528.22;;;0.85;100.00
79534;BME280;68982;52.160;6.736;2024-03-08T02:28:18;101533.63;;;0.83;100.00
79534;BME280;68982;52.160;6.736;2024-03-08T02:30:45;101516.31;;;0.77;100.00
79534;BME280;68982;52.160;6.736;2024-03-08T02:33:13;101520.88;;;0.75;100.00
79534;BME280;68982;52.160;6.736;2024-03-08T02:35:38;101521.63;;;0.77;100.00
79534;BME280;68982;52.160;6.736;2024-03-08T02:38:04;101519.19;;;0.74;100.00
79534;BME280;68982;52.160;6.736;2024-03-08T02:40:30;101521.13;;;0.72;100.00
79534;BME280;68982;52.160;6.736;2024-03-08T02:42:55;101513.16;;;0.72;100.00
79534;BME280;68982;52.160;6.736;2024-03-08T02:45:21;101516.78;;;0.71;100.00
79534;BME280;68982;52.160;6.736;2024-03-08T02:47:46;101518.22;;;0.75;100.00
79534;BME280;68982;52.160;6.736;2024-03-08T02:50:14;101508.59;;;0.74;100.00
79534;BME280;68982;52.160;6.736;2024-03-08T02:52:41;101511.25;;;0.74;100.00
79534;BME280;68982;52.160;6.736;2024-03-08T02:55:07;101500.72;;;0.73;100.00
79534;BME280;68982;52.160;6.736;2024-03-08T02:57:33;101501.78;;;0.70;100.00
79534;BME280;68982;52.160;6.736;2024-03-08T02:59:58;101493.81;;;0.70;100.00
79534;BME280;68982;52.160;6.736;2024-03-08T03:02:25;101498.28;;;0.70;100.00
79534;BME280;68982;52.160;6.736;2024-03-08T03:04:51;101499.38;;;0.67;100.00
79534;BME280;68982;52.160;6.736;2024-03-08T03:07:17;101491.31;;;0.56;100.00
79534;BME280;68982;52.160;6.736;2024-03-08T03:09:42;101496.38;;;0.59;100.00
79534;BME280;68982;52.160;6.736;2024-03-08T03:12:08;101493.63;;;0.60;100.00
79534;BME280;68982;52.160;6.736;2024-03-08T03:14:35;101492.06;;;0.58;100.00
79534;BME280;68982;52.160;6.736;2024-03-08T03:17:04;101496.50;;;0.57;100.00
79534;BME280;68982;52.160;6.736;2024-03-08T03:19:30;101488.09;;;0.51;100.00
79534;BME280;68982;52.160;6.736;2024-03-08T03:21:55;101490.00;;;0.49;100.00
79534;BME280;68982;52.160;6.736;2024-03-08T03:24:20;101496.94;;;0.51;100.00
79534;BME280;68982;52.160;6.736;2024-03-08T03:26:46;101491.22;;;0.45;100.00
79534;BME280;68982;52.160;6.736;2024-03-08T03:29:14;101484.41;;;0.40;100.00
79534;BME280;68982;52.160;6.736;2024-03-08T03:31:40;101492.16;;;0.44;100.00
79534;BME280;68982;52.160;6.736;2024-03-08T03:34:06;101491.00;;;0.48;100.00
79534;BME280;68982;52.160;6.736;2024-03-08T03:36:34;101486.00;;;0.43;100.00
79534;BME280;68982;52.160;6.736;2024-03-08T03:39:01;101483.69;;;0.38;100.00
79534;BME280;68982;52.160;6.736;2024-03-08T03:41:41;101481.97;;;0.37;100.00
79534;BME280;68982;52.160;6.736;2024-03-08T03:44:07;101475.28;;;0.45;100.00
79534;BME280;68982;52.160;6.736;2024-03-08T03:46:33;101470.28;;;0.40;100.00
79534;BME280;68982;52.160;6.736;2024-03-08T03:48:58;101467.63;;;0.40;100.00
79534;BME280;68982;52.160;6.736;2024-03-08T03:51:24;101456.59;;;0.33;100.00
79534;BME280;68982;52.160;6.736;2024-03-08T03:53:49;101459.06;;;0.36;100.00
79534;BME280;68982;52.160;6.736;2024-03-08T03:56:14;101461.69;;;0.36;100.00
79534;BME280;68982;52.160;6.736;2024-03-08T03:58:40;101468.28;;;0.31;100.00
79534;BME280;68982;52.160;6.736;2024-03-08T04:01:05;101463.63;;;0.34;100.00
79534;BME280;68982;52.160;6.736;2024-03-08T04:03:31;101457.78;;;0.29;100.00
79534;BME280;68982;52.160;6.736;2024-03-08T04:05:56;101462.34;;;0.27;100.00
79534;BME280;68982;52.160;6.736;2024-03-08T04:08:22;101460.44;;;0.29;100.00
79534;BME280;68982;52.160;6.736;2024-03-08T04:10:49;101462.34;;;0.27;100.00
79534;BME280;68982;52.160;6.736;2024-03-08T04:13:14;101448.34;;;0.25;100.00
79534;BME280;68982;52.160;6.736;2024-03-08T04:15:41;101454.50;;;0.26;100.00
79534;BME280;68982;52.160;6.736;2024-03-08T04:18:08;101452.91;;;0.23;100.00
79534;BME280;68982;52.160;6.736;2024-03-08T04:20:33;101451.59;;;0.29;100.00
79534;BME280;68982;52.160;6.736;2024-03-08T04:22:59;101446.84;;;0.21;100.00
79534;BME280;68982;52.160;6.736;2024-03-08T04:25:24;101444.53;;;0.16;100.00
79534;BME280;68982;52.160;6.736;2024-03-08T04:27:50;101440.91;;;0.17;100.00
79534;BME280;68982;52.160;6.736;2024-03-08T04:30:17;101437.41;;;0.17;100.00
79534;BME280;68982;52.160;6.736;2024-03-08T04:32:43;101438.38;;;0.16;100.00
79534;BME280;68982;52.160;6.736;2024-03-08T04:35:09;101444.63;;;0.15;100.00
79534;BME280;68982;52.160;6.736;2024-03-08T04:37:34;101444.63;;;0.15;100.00
79534;BME280;68982;52.160;6.736;2024-03-08T04:39:59;101436.13;;;0.10;100.00
79534;BME280;68982;52.160;6.736;2024-03-08T04:42:26;101438.78;;;0.10;100.00
79534;BME280;68982;52.160;6.736;2024-03-08T04:44:52;101435.06;;;0.12;100.00
79534;BME280;68982;52.160;6.736;2024-03-08T04:47:18;101429.13;;;0.09;100.00
79534;BME280;68982;52.160;6.736;2024-03-08T04:49:44;101422.88;;;0.10;100.00
79534;BME280;68982;52.160;6.736;2024-03-08T04:52:09;101428.09;;;0.11;100.00
79534;BME280;68982;52.160;6.736;2024-03-08T04:54:35;101426.47;;;0.09;100.00
79534;BME280;68982;52.160;6.736;2024-03-08T04:57:00;101425.94;;;0.04;100.00
79534;BME280;68982;52.160;6.736;2024-03-08T04:59:29;101421.72;;;0.01;100.00
79534;BME280;68982;52.160;6.736;2024-03-08T05:01:54;101427.00;;;0.01;100.00
79534;BME280;68982;52.160;6.736;2024-03-08T05:04:20;101423.53;;;0.01;100.00
79534;BME280;68982;52.160;6.736;2024-03-08T05:06:45;101424.47;;;-0.01;100.00
79534;BME280;68982;52.160;6.736;2024-03-08T05:09:11;101422.56;;;0.02;100.00
79534;BME280;68982;52.160;6.736;2024-03-08T05:11:41;101421.63;;;0.03;100.00
79534;BME280;68982;52.160;6.736;2024-03-08T05:14:06;101416.50;;;-0.01;100.00
79534;BME280;68982;52.160;6.736;2024-03-08T05:16:31;101411.09;;;0.01;100.00
79534;BME280;68982;52.160;6.736;2024-03-08T05:18:57;101405.91;;;-0.01;100.00
79534;BME280;68982;52.160;6.736;2024-03-08T05:21:22;101418.84;;;0.04;100.00
79534;BME280;68982;52.160;6.736;2024-03-08T05:23:48;101418.41;;;-0.03;100.00
79534;BME280;68982;52.160;6.736;2024-03-08T05:26:15;101411.44;;;-0.04;100.00
79534;BME280;68982;52.160;6.736;2024-03-08T05:28:40;101416.94;;;-0.07;100.00
79534;BME280;68982;52.160;6.736;2024-03-08T05:31:06;101409.94;;;-0.08;100.00
79534;BME280;68982;52.160;6.736;2024-03-08T05:33:32;101398.38;;;-0.07;100.00
79534;BME280;68982;52.160;6.736;2024-03-08T05:35:59;101402.41;;;-0.14;100.00
79534;BME280;68982;52.160;6.736;2024-03-08T05:38:25;101404.28;;;-0.16;100.00
79534;BME280;68982;52.160;6.736;2024-03-08T05:40:51;101406.00;;;-0.15;100.00
79534;BME280;68982;52.160;6.736;2024-03-08T05:43:16;101410.25;;;-0.12;100.00
79534;BME280;68982;52.160;6.736;2024-03-08T05:45:45;101406.75;;;-0.13;100.00
79534;BME280;68982;52.160;6.736;2024-03-08T05:48:10;101408.25;;;-0.09;100.00
79534;BME280;68982;52.160;6.736;2024-03-08T05:50:38;101404.72;;;-0.09;100.00
79534;BME280;68982;52.160;6.736;2024-03-08T05:53:04;101401.66;;;-0.16;100.00
79534;BME280;68982;52.160;6.736;2024-03-08T05:55:32;101401.34;;;-0.11;100.00
79534;BME280;68982;52.160;6.736;2024-03-08T05:58:00;101396.03;;;-0.11;100.00
79534;BME280;68982;52.160;6.736;2024-03-08T06:00:26;101398.50;;;-0.08;100.00
79534;BME280;68982;52.160;6.736;2024-03-08T06:02:52;101394.88;;;-0.07;100.00
79534;BME280;68982;52.160;6.736;2024-03-08T06:05:17;101397.84;;;-0.12;100.00
79534;BME280;68982;52.160;6.736;2024-03-08T06:07:43;101387.13;;;-0.10;100.00
79534;BME280;68982;52.160;6.736;2024-03-08T06:10:09;101389.38;;;-0.04;100.00
79534;BME280;68982;52.160;6.736;2024-03-08T06:12:36;101391.91;;;-0.03;100.00
79534;BME280;68982;52.160;6.736;2024-03-08T06:15:06;101396.34;;;-0.03;100.00
79534;BME280;68982;52.160;6.736;2024-03-08T06:17:31;101386.50;;;-0.01;100.00
79534;BME280;68982;52.160;6.736;2024-03-08T06:19:57;101389.34;;;0.09;100.00
79534;BME280;68982;52.160;6.736;2024-03-08T06:22:22;101385.66;;;0.11;100.00
79534;BME280;68982;52.160;6.736;2024-03-08T06:24:47;101394.66;;;0.09;100.00
79534;BME280;68982;52.160;6.736;2024-03-08T06:27:13;101392.66;;;0.12;100.00
79534;BME280;68982;52.160;6.736;2024-03-08T06:29:39;101386.50;;;0.12;100.00
79534;BME280;68982;52.160;6.736;2024-03-08T06:32:04;101386.50;;;0.12;100.00
79534;BME280;68982;52.160;6.736;2024-03-08T06:34:32;101390.63;;;0.16;100.00
79534;BME280;68982;52.160;6.736;2024-03-08T06:36:59;101381.94;;;0.14;100.00
79534;BME280;68982;52.160;6.736;2024-03-08T06:39:26;101384.59;;;0.14;100.00
79534;BME280;68982;52.160;6.736;2024-03-08T06:41:51;101378.97;;;0.18;100.00
79534;BME280;68982;52.160;6.736;2024-03-08T06:44:16;101380.78;;;0.18;100.00
79534;BME280;68982;52.160;6.736;2024-03-08T06:46:42;101377.88;;;0.21;100.00
79534;BME280;68982;52.160;6.736;2024-03-08T06:49:08;101368.44;;;0.17;100.00
79534;BME280;68982;52.160;6.736;2024-03-08T06:51:34;101376.50;;;0.28;100.00
79534;BME280;68982;52.160;6.736;2024-03-08T06:54:00;101376.28;;;0.31;100.00
79534;BME280;68982;52.160;6.736;2024-03-08T06:56:25;101379.22;;;0.39;100.00
79534;BME280;68982;52.160;6.736;2024-03-08T06:58:50;101374.22;;;0.48;100.00
79534;BME280;68982;52.160;6.736;2024-03-08T07:01:16;101366.38;;;0.46;100.00
79534;BME280;68982;52.160;6.736;2024-03-08T07:03:42;101366.91;;;0.51;100.00
79534;BME280;68982;52.160;6.736;2024-03-08T07:06:10;101373.56;;;0.57;100.00
79534;BME280;68982;52.160;6.736;2024-03-08T07:08:36;101368.78;;;0.62;100.00
79534;BME280;68982;52.160;6.736;2024-03-08T07:11:01;101373.13;;;0.63;100.00
79534;BME280;68982;52.160;6.736;2024-03-08T07:13:27;101372.69;;;0.69;100.00
79534;BME280;68982;52.160;6.736;2024-03-08T07:15:55;101376.41;;;0.67;100.00
79534;BME280;68982;52.160;6.736;2024-03-08T07:18:20;101362.34;;;0.77;100.00
79534;BME280;68982;52.160;6.736;2024-03-08T07:20:47;101360.09;;;0.84;100.00
79534;BME280;68982;52.160;6.736;2024-03-08T07:23:12;101359.88;;;0.87;100.00
79534;BME280;68982;52.160;6.736;2024-03-08T07:25:58;101359.41;;;0.93;100.00
79534;BME280;68982;52.160;6.736;2024-03-08T07:28:23;101364.28;;;0.99;100.00
79534;BME280;68982;52.160;6.736;2024-03-08T07:30:48;101360.19;;;1.07;100.00
79534;BME280;68982;52.160;6.736;2024-03-08T07:33:14;101357.22;;;1.11;100.00
79534;BME280;68982;52.160;6.736;2024-03-08T07:35:39;101358.91;;;1.12;100.00
79534;BME280;68982;52.160;6.736;2024-03-08T07:38:06;101352.97;;;1.09;100.00
79534;BME280;68982;52.160;6.736;2024-03-08T07:40:35;101343.84;;;1.24;100.00
79534;BME280;68982;52.160;6.736;2024-03-08T07:43:01;101353.66;;;1.35;100.00
79534;BME280;68982;52.160;6.736;2024-03-08T07:45:27;101349.47;;;1.43;100.00
79534;BME280;68982;52.160;6.736;2024-03-08T07:47:53;101344.06;;;1.45;100.00
79534;BME280;68982;52.160;6.736;2024-03-08T07:50:18;101348.56;;;1.56;100.00
79534;BME280;68982;52.160;6.736;2024-03-08T07:52:44;101362.25;;;1.85;100.00
79534;BME280;68982;52.160;6.736;2024-03-08T07:55:10;101347.50;;;2.15;100.00
79534;BME280;68982;52.160;6.736;2024-03-08T07:57:35;101347.63;;;2.36;100.00
79534;BME280;68982;52.160;6.736;2024-03-08T08:00:04;101343.03;;;2.49;100.00
79534;BME280;68982;52.160;6.736;2024-03-08T08:02:32;101340.69;;;2.67;100.00
79534;BME280;68982;52.160;6.736;2024-03-08T08:04:58;101340.66;;;2.78;100.00
79534;BME280;68982;52.160;6.736;2024-03-08T08:07:24;101338.16;;;2.98;100.00
79534;BME280;68982;52.160;6.736;2024-03-08T08:09:49;101342.09;;;3.15;100.00
79534;BME280;68982;52.160;6.736;2024-03-08T08:12:15;101332.63;;;3.43;100.00
79534;BME280;68982;52.160;6.736;2024-03-08T08:14:41;101341.97;;;3.79;100.00
79534;BME280;68982;52.160;6.736;2024-03-08T08:17:06;101328.88;;;4.07;100.00
79534;BME280;68982;52.160;6.736;2024-03-08T08:19:34;101332.63;;;4.25;100.00
79534;BME280;68982;52.160;6.736;2024-03-08T08:22:01;101331.13;;;4.42;100.00
79534;BME280;68982;52.160;6.736;2024-03-08T08:24:27;101327.09;;;4.57;100.00
79534;BME280;68982;52.160;6.736;2024-03-08T08:26:53;101319.41;;;4.74;100.00
79534;BME280;68982;52.160;6.736;2024-03-08T08:29:18;101323.19;;;5.20;100.00
79534;BME280;68982;52.160;6.736;2024-03-08T08:31:43;101311.22;;;5.44;100.00
79534;BME280;68982;52.160;6.736;2024-03-08T08:34:09;101306.56;;;5.46;97.65
79534;BME280;68982;52.160;6.736;2024-03-08T08:36:37;101298.09;;;5.60;96.35
79534;BME280;68982;52.160;6.736;2024-03-08T08:39:02;101305.72;;;6.02;95.91
79534;BME280;68982;52.160;6.736;2024-03-08T08:41:28;101302.50;;;6.36;93.43
79534;BME280;68982;52.160;6.736;2024-03-08T08:43:54;101301.63;;;6.08;93.08
79534;BME280;68982;52.160;6.736;2024-03-08T08:46:20;101288.28;;;6.26;94.05
79534;BME280;68982;52.160;6.736;2024-03-08T08:48:46;101284.72;;;6.35;94.98
79534;BME280;68982;52.160;6.736;2024-03-08T08:51:12;101278.53;;;6.34;91.01
79534;BME280;68982;52.160;6.736;2024-03-08T08:53:38;101282.72;;;6.37;96.43
79534;BME280;68982;52.160;6.736;2024-03-08T08:56:06;101278.19;;;6.65;90.71
79534;BME280;68982;52.160;6.736;2024-03-08T08:58:33;101280.56;;;6.86;90.17
79534;BME280;68982;52.160;6.736;2024-03-08T09:00:58;101277.31;;;6.64;90.54
79534;BME280;68982;52.160;6.736;2024-03-08T09:03:24;101273.75;;;6.56;91.06
79534;BME280;68982;52.160;6.736;2024-03-08T09:05:50;101277.03;;;6.68;90.32
79534;BME280;68982;52.160;6.736;2024-03-08T09:08:15;101268.50;;;7.08;96.65
79534;BME280;68982;52.160;6.736;2024-03-08T09:10:40;101265.28;;;7.04;89.63
79534;BME280;68982;52.160;6.736;2024-03-08T09:13:06;101262.94;;;6.83;89.97
79534;BME280;68982;52.160;6.736;2024-03-08T09:15:31;101263.72;;;6.94;89.34
79534;BME280;68982;52.160;6.736;2024-03-08T09:17:56;101259.06;;;7.22;88.48
79534;BME280;68982;52.160;6.736;2024-03-08T09:20:22;101262.25;;;7.70;91.71
79534;BME280;68982;52.160;6.736;2024-03-08T09:22:47;101251.78;;;7.58;89.09
79534;BME280;68982;52.160;6.736;2024-03-08T09:25:13;101255.16;;;7.95;93.35
79534;BME280;68982;52.160;6.736;2024-03-08T09:27:38;101253.81;;;7.99;84.43
79534;BME280;68982;52.160;6.736;2024-03-08T09:30:05;101246.59;;;7.99;83.50
79534;BME280;68982;52.160;6.736;2024-03-08T09:32:31;101245.88;;;8.32;85.61
79534;BME280;68982;52.160;6.736;2024-03-08T09:34:57;101236.69;;;8.42;80.47
79534;BME280;68982;52.160;6.736;2024-03-08T09:37:22;101242.09;;;8.67;80.07
79534;BME280;68982;52.160;6.736;2024-03-08T09:39:48;101226.16;;;8.74;79.64
79534;BME280;68982;52.160;6.736;2024-03-08T09:42:15;101217.94;;;8.91;82.02
79534;BME280;68982;52.160;6.736;2024-03-08T09:44:45;101224.66;;;8.96;78.80
79534;BME280;68982;52.160;6.736;2024-03-08T09:47:13;101206.84;;;8.86;83.70
79534;BME280;68982;52.160;6.736;2024-03-08T09:49:39;101205.16;;;9.02;80.50
79534;BME280;68982;52.160;6.736;2024-03-08T09:52:06;101203.28;;;9.10;77.76
79534;BME280;68982;52.160;6.736;2024-03-08T09:54:31;101211.28;;;9.51;81.95
79534;BME280;68982;52.160;6.736;2024-03-08T09:56:57;101196.75;;;9.69;76.07
79534;BME280;68982;52.160;6.736;2024-03-08T09:59:22;101196.44;;;9.72;79.07
79534;BME280;68982;52.160;6.736;2024-03-08T10:01:47;101186.00;;;9.69;75.76
79534;BME280;68982;52.160;6.736;2024-03-08T10:04:13;101183.34;;;9.61;78.26
79534;BME280;68982;52.160;6.736;2024-03-08T10:06:39;101182.56;;;10.23;77.41
79534;BME280;68982;52.160;6.736;2024-03-08T10:09:05;101182.84;;;9.96;74.45
79534;BME280;68982;52.160;6.736;2024-03-08T10:11:32;101179.81;;;9.91;75.01
79534;BME280;68982;52.160;6.736;2024-03-08T10:13:59;101173.56;;;10.39;72.89
79534;BME280;68982;52.160;6.736;2024-03-08T10:16:27;101174.63;;;10.52;73.00
79534;BME280;68982;52.160;6.736;2024-03-08T10:18:52;101163.34;;;10.72;72.08
79534;BME280;68982;52.160;6.736;2024-03-08T10:21:18;101167.34;;;10.76;72.63
79534;BME280;68982;52.160;6.736;2024-03-08T10:23:44;101166.94;;;10.87;71.30
79534;BME280;68982;52.160;6.736;2024-03-08T10:26:14;101160.72;;;11.02;70.62
79534;BME280;68982;52.160;6.736;2024-03-08T10:28:41;101159.22;;;10.99;70.83
79534;BME280;68982;52.160;6.736;2024-03-08T10:31:06;101162.66;;;10.93;69.98
79534;BME280;68982;52.160;6.736;2024-03-08T10:33:32;101167.00;;;11.32;70.25
79534;BME280;68982;52.160;6.736;2024-03-08T10:35:58;101159.63;;;11.70;69.80
79534;BME280;68982;52.160;6.736;2024-03-08T10:38:26;101157.66;;;11.64;67.11
79534;BME280;68982;52.160;6.736;2024-03-08T10:40:53;101149.28;;;11.29;68.18
79534;BME280;68982;52.160;6.736;2024-03-08T10:43:24;101147.63;;;11.88;67.42
79534;BME280;68982;52.160;6.736;2024-03-08T10:45:59;101140.22;;;11.81;67.15
79534;BME280;68982;52.160;6.736;2024-03-08T10:48:31;101149.53;;;12.30;65.30
79534;BME280;68982;52.160;6.736;2024-03-08T10:50:59;101132.09;;;12.33;64.33
79534;BME280;68982;52.160;6.736;2024-03-08T10:53:27;101134.97;;;12.74;61.81
79534;BME280;68982;52.160;6.736;2024-03-08T10:55:53;101129.69;;;13.22;60.33
79534;BME280;68982;52.160;6.736;2024-03-08T10:58:21;101121.88;;;13.06;58.72
79534;BME280;68982;52.160;6.736;2024-03-08T11:00:47;101123.47;;;13.57;55.36
79534;BME280;68982;52.160;6.736;2024-03-08T11:06:08;101111.09;;;13.96;53.45
79534;BME280;68982;52.160;6.736;2024-03-08T11:08:37;101107.59;;;14.08;52.68
79534;BME280;68982;52.160;6.736;2024-03-08T11:11:03;101107.59;;;14.15;52.42
79534;BME280;68982;52.160;6.736;2024-03-08T11:13:39;101096.16;;;13.58;51.29
79534;BME280;68982;52.160;6.736;2024-03-08T11:18:55;101094.06;;;14.48;49.24
79534;BME280;68982;52.160;6.736;2024-03-08T11:21:25;101087.19;;;14.39;50.57
79534;BME280;68982;52.160;6.736;2024-03-08T11:24:11;101083.34;;;13.94;50.67
79534;BME280;68982;52.160;6.736;2024-03-08T11:26:41;101079.47;;;14.43;50.31
79534;BME280;68982;52.160;6.736;2024-03-08T11:32:16;101076.91;;;15.21;50.44
79534;BME280;68982;52.160;6.736;2024-03-08T11:34:48;101074.69;;;14.65;47.84
79534;BME280;68982;52.160;6.736;2024-03-08T11:37:17;101067.38;;;14.32;47.89
79534;BME280;68982;52.160;6.736;2024-03-08T11:39:49;101055.91;;;14.43;49.06
79534;BME280;68982;52.160;6.736;2024-03-08T11:42:15;101052.16;;;14.58;47.68
79534;BME280;68982;52.160;6.736;2024-03-08T11:44:43;101066.03;;;15.21;45.91
79534;BME280;68982;52.160;6.736;2024-03-08T11:47:10;101056.91;;;14.29;50.26
79534;BME280;68982;52.160;6.736;2024-03-08T11:49:36;101058.53;;;15.17;49.72
79534;BME280;68982;52.160;6.736;2024-03-08T11:52:02;101049.50;;;15.23;48.09
79534;BME280;68982;52.160;6.736;2024-03-08T11:54:28;101034.19;;;14.83;45.97
79534;BME280;68982;52.160;6.736;2024-03-08T11:56:55;101040.44;;;14.84;48.89
79534;BME280;68982;52.160;6.736;2024-03-08T11:59:25;101029.63;;;15.36;46.30
79534;BME280;68982;52.160;6.736;2024-03-08T12:02:02;101026.31;;;15.20;45.55
79534;BME280;68982;52.160;6.736;2024-03-08T12:04:28;101020.63;;;14.70;47.65
79534;BME280;68982;52.160;6.736;2024-03-08T12:06:54;101010.16;;;14.47;47.75
79534;BME280;68982;52.160;6.736;2024-03-08T12:09:19;101006.63;;;14.33;45.18
79534;BME280;68982;52.160;6.736;2024-03-08T12:11:48;101008.28;;;14.87;47.06
79534;BME280;68982;52.160;6.736;2024-03-08T12:14:14;101001.47;;;15.23;46.04
79534;BME280;68982;52.160;6.736;2024-03-08T12:16:39;101002.56;;;15.61;43.30
79534;BME280;68982;52.160;6.736;2024-03-08T12:19:06;100991.34;;;14.92;45.04
79534;BME280;68982;52.160;6.736;2024-03-08T12:21:32;100986.16;;;14.77;45.55
79534;BME280;68982;52.160;6.736;2024-03-08T12:24:08;100980.34;;;15.25;44.26
79534;BME280;68982;52.160;6.736;2024-03-08T12:26:36;100977.38;;;14.82;45.18
79534;BME280;68982;52.160;6.736;2024-03-08T12:29:26;100966.16;;;15.23;43.50
79534;BME280;68982;52.160;6.736;2024-03-08T12:31:58;100976.47;;;15.08;45.24
79534;BME280;68982;52.160;6.736;2024-03-08T12:34:26;100971.81;;;14.30;47.36
79534;BME280;68982;52.160;6.736;2024-03-08T12:36:52;100949.63;;;15.25;46.53
79534;BME280;68982;52.160;6.736;2024-03-08T12:39:20;100953.53;;;15.36;43.63
79534;BME280;68982;52.160;6.736;2024-03-08T12:41:52;100949.63;;;15.63;43.57
79534;BME280;68982;52.160;6.736;2024-03-08T12:44:19;100949.78;;;15.37;44.89
79534;BME280;68982;52.160;6.736;2024-03-08T12:46:46;100949.78;;;15.68;45.31
79534;BME280;68982;52.160;6.736;2024-03-08T12:49:13;100939.56;;;16.21;41.53
79534;BME280;68982;52.160;6.736;2024-03-08T12:51:43;100943.13;;;15.96;42.45
79534;BME280;68982;52.160;6.736;2024-03-08T12:54:08;100943.97;;;15.26;43.48
79534;BME280;68982;52.160;6.736;2024-03-08T12:56:34;100928.25;;;15.73;43.56